Time;durP1;ratioP1;P1;durP2;ratioP2;P2;SDS_P1;SDS_P2;PMS_P1;PMS_P2;Temp;Humidity;BMP_temperature;BMP_pressure;BME280_temperature;BME280_humidity;BME280_pressure;Samples;Min_cycle;Max_cycle;Signal;HPM_P1;HPM_P2
2023/12/24 00:01:10;;;;;;;13.77;4.68;;;9.20;99.90;;;;;;5076745;28;20036;-74
2023/12/24 00:03:37;;;;;;;15.02;4.80;;;9.20;99.90;;;;;;5093698;28;20399;-73
2023/12/24 00:06:04;;;;;;;15.18;4.30;;;9.20;99.90;;;;;;5076748;28;20036;-73
2023/12/24 00:08:33;;;;;;;18.42;5.20;;;9.20;99.90;;;;;;5094037;28;20481;-73
2023/12/24 00:10:59;;;;;;;17.80;4.10;;;9.20;99.90;;;;;;5043800;28;20470;-74
2023/12/24 00:13:26;;;;;;;15.85;4.57;;;9.20;99.90;;;;;;5093491;28;20074;-74
2023/12/24 00:15:52;;;;;;;19.20;5.38;;;9.20;99.90;;;;;;5076580;28;20044;-74
2023/12/24 00:18:19;;;;;;;18.15;5.22;;;9.20;99.90;;;;;;5059877;28;20040;-74
2023/12/24 00:20:45;;;;;;;16.10;5.28;;;9.20;99.90;;;;;;5093425;28;20088;-74
2023/12/24 00:23:11;;;;;;;17.13;5.20;;;9.20;99.90;;;;;;5076365;28;20040;-73
2023/12/24 00:25:38;;;;;;;16.48;4.30;;;9.20;99.90;;;;;;5076373;28;20040;-74
2023/12/24 00:28:05;;;;;;;14.23;4.50;;;9.20;99.90;;;;;;5093009;28;20040;-74
2023/12/24 00:30:31;;;;;;;17.75;4.95;;;9.20;99.90;;;;;;5093354;28;20036;-73
2023/12/24 00:32:58;;;;;;;18.25;4.90;;;9.20;99.90;;;;;;5076077;28;20093;-74
2023/12/24 00:35:25;;;;;;;19.30;4.90;;;9.20;99.90;;;;;;5076293;28;20134;-73
2023/12/24 00:37:51;;;;;;;19.30;4.80;;;9.20;99.90;;;;;;5059295;28;20039;-73
2023/12/24 00:40:18;;;;;;;18.80;5.00;;;9.20;99.90;;;;;;5093307;28;20503;-74
2023/12/24 00:42:44;;;;;;;18.58;4.78;;;9.10;99.90;;;;;;5092912;28;20040;-78
2023/12/24 00:45:12;;;;;;;18.60;4.63;;;9.20;99.90;;;;;;5092954;28;20040;-77
2023/12/24 00:47:39;;;;;;;15.57;4.72;;;9.20;99.90;;;;;;5075946;28;20036;-79
2023/12/24 00:50:09;;;;;;;17.05;4.68;;;9.20;99.90;;;;;;5058978;28;20044;-78
2023/12/24 00:52:36;;;;;;;15.80;4.55;;;9.20;99.90;;;;;;5076079;28;20051;-78
2023/12/24 00:55:02;;;;;;;16.33;4.78;;;9.30;99.90;;;;;;5076109;28;20031;-78
2023/12/24 00:57:29;;;;;;;15.07;4.97;;;9.30;99.90;;;;;;5075912;28;20072;-77
2023/12/24 00:59:55;;;;;;;16.58;4.57;;;9.20;99.90;;;;;;5042406;28;20076;-78
2023/12/24 01:02:21;;;;;;;15.73;4.43;;;9.20;99.90;;;;;;5092546;28;20040;-78
2023/12/24 01:04:47;;;;;;;18.17;4.40;;;9.30;99.90;;;;;;5075632;28;20146;-78
2023/12/24 01:07:13;;;;;;;17.05;4.50;;;9.30;99.90;;;;;;5075506;28;20322;-78
2023/12/24 01:09:39;;;;;;;16.75;4.90;;;9.30;99.90;;;;;;5092632;28;20044;-79
2023/12/24 01:12:06;;;;;;;19.88;5.10;;;9.20;99.90;;;;;;5075699;28;20055;-79
2023/12/24 01:14:32;;;;;;;11.98;4.45;;;9.20;99.90;;;;;;5092681;28;20042;-78
2023/12/24 01:16:59;;;;;;;13.13;3.95;;;9.20;99.90;;;;;;5075959;28;20044;-78
2023/12/24 01:19:26;;;;;;;17.67;4.47;;;9.20;99.90;;;;;;5059139;28;20044;-78
2023/12/24 01:21:54;;;;;;;13.57;4.20;;;9.30;99.90;;;;;;5075610;28;20040;-78
2023/12/24 01:24:20;;;;;;;10.30;3.72;;;9.20;99.90;;;;;;5075895;28;20450;-78
2023/12/24 01:26:46;;;;;;;16.05;4.38;;;9.30;99.90;;;;;;5075358;28;20078;-78
2023/12/24 01:29:13;;;;;;;11.95;4.15;;;9.30;99.90;;;;;;5075632;28;20400;-78
2023/12/24 01:31:39;;;;;;;17.77;4.28;;;9.30;99.90;;;;;;5058827;28;20096;-79
2023/12/24 01:34:04;;;;;;;15.68;4.03;;;9.30;99.90;;;;;;5091269;28;20050;-79
2023/12/24 01:36:30;;;;;;;14.18;4.15;;;9.30;99.90;;;;;;5042234;28;20032;-78
2023/12/24 01:38:56;;;;;;;13.75;4.22;;;9.30;99.90;;;;;;5058815;28;20064;-78
2023/12/24 01:41:22;;;;;;;16.75;4.20;;;9.30;99.90;;;;;;5075313;28;20032;-79
2023/12/24 01:43:48;;;;;;;15.82;4.03;;;9.30;99.90;;;;;;5058777;28;20436;-79
2023/12/24 01:46:19;;;;;;;15.77;4.40;;;9.30;99.90;;;;;;5075243;28;20065;-79
2023/12/24 01:48:45;;;;;;;12.85;4.03;;;9.30;99.90;;;;;;5075361;28;20373;-78
2023/12/24 01:51:12;;;;;;;12.68;3.70;;;9.30;99.90;;;;;;5074867;28;20054;-79
2023/12/24 01:53:39;;;;;;;13.20;3.85;;;9.30;99.90;;;;;;5074817;28;20044;-78
2023/12/24 01:56:05;;;;;;;11.30;3.95;;;9.30;99.90;;;;;;5091754;28;20044;-77
2023/12/24 01:58:31;;;;;;;11.10;3.90;;;9.30;99.90;;;;;;5091767;28;20044;-77
2023/12/24 02:00:58;;;;;;;11.13;3.20;;;9.30;99.90;;;;;;5058863;28;20051;-78
2023/12/24 02:03:24;;;;;;;13.95;3.60;;;9.30;99.90;;;;;;5075296;28;20477;-78
2023/12/24 02:05:50;;;;;;;17.15;4.25;;;9.30;99.90;;;;;;5091775;28;20097;-79
2023/12/24 02:08:21;;;;;;;12.75;3.70;;;9.30;99.90;;;;;;5091603;28;20093;-79
2023/12/24 02:10:50;;;;;;;13.70;3.75;;;9.20;99.90;;;;;;5091790;28;20051;-78
2023/12/24 02:13:17;;;;;;;13.52;3.80;;;9.20;99.90;;;;;;5075146;28;20040;-79
2023/12/24 02:15:46;;;;;;;15.98;3.50;;;9.30;99.90;;;;;;5075170;28;20047;-77
2023/12/24 02:18:12;;;;;;;12.10;3.35;;;9.20;99.90;;;;;;5075771;28;20111;-78
2023/12/24 02:20:38;;;;;;;10.85;3.15;;;9.30;99.90;;;;;;5058876;28;20543;-79
2023/12/24 02:23:04;;;;;;;12.13;3.10;;;9.30;99.90;;;;;;5042762;28;20042;-78
2023/12/24 02:25:31;;;;;;;13.50;3.10;;;9.30;99.90;;;;;;5076505;28;20071;-79
2023/12/24 02:28:24;;;;;;;12.10;2.65;;;9.30;99.90;;;;;;5092899;28;20094;-77
2023/12/24 02:30:52;;;;;;;10.13;2.60;;;9.30;99.90;;;;;;5093451;28;20083;-78
2023/12/24 02:33:21;;;;;;;7.82;2.28;;;9.30;99.90;;;;;;5076244;28;20040;-78
2023/12/24 02:35:48;;;;;;;8.55;2.42;;;9.30;99.90;;;;;;5076460;28;20093;-79
2023/12/24 02:38:14;;;;;;;10.05;2.47;;;9.30;99.90;;;;;;5075858;28;20063;-76
2023/12/24 02:40:40;;;;;;;8.18;2.33;;;9.30;99.90;;;;;;5076244;28;20044;-78
2023/12/24 02:43:08;;;;;;;8.27;2.10;;;9.20;99.90;;;;;;5075780;28;20099;-80
2023/12/24 02:45:34;;;;;;;7.35;2.20;;;9.40;99.90;;;;;;5094572;28;20429;-79
2023/12/24 02:48:00;;;;;;;7.32;2.20;;;9.30;99.90;;;;;;5097234;28;20038;-79
2023/12/24 02:50:26;;;;;;;6.38;1.83;;;9.20;99.90;;;;;;5047220;28;20408;-79
2023/12/24 02:52:52;;;;;;;7.45;2.33;;;9.30;99.90;;;;;;5097286;28;20460;-79
2023/12/24 02:55:18;;;;;;;7.80;2.35;;;9.30;99.90;;;;;;5096627;28;20075;-79
2023/12/24 02:57:43;;;;;;;7.35;2.15;;;9.30;99.90;;;;;;5081095;28;20040;-77
2023/12/24 03:00:11;;;;;;;7.65;2.70;;;9.30;99.90;;;;;;5080827;28;20040;-79
2023/12/24 03:02:37;;;;;;;6.55;2.15;;;9.30;99.90;;;;;;5096064;28;20058;-79
2023/12/24 03:05:03;;;;;;;7.25;2.35;;;9.30;99.90;;;;;;5079434;28;20056;-79
2023/12/24 03:07:29;;;;;;;7.50;2.60;;;9.30;99.90;;;;;;5045931;28;20123;-78
2023/12/24 03:09:55;;;;;;;8.98;2.53;;;9.30;99.90;;;;;;5095773;28;20127;-79
2023/12/24 03:12:21;;;;;;;7.90;2.40;;;9.20;99.90;;;;;;5078603;28;20028;-79
2023/12/24 03:14:47;;;;;;;7.82;2.70;;;9.30;99.90;;;;;;5078236;28;20039;-79
2023/12/24 03:17:12;;;;;;;6.55;2.40;;;9.30;99.90;;;;;;5095228;28;20465;-79
2023/12/24 03:19:38;;;;;;;7.20;2.53;;;9.30;99.90;;;;;;5094908;28;20044;-78
2023/12/24 03:22:04;;;;;;;5.75;2.70;;;9.30;99.90;;;;;;5077802;28;20048;-78
2023/12/24 03:24:30;;;;;;;8.77;3.30;;;9.30;99.90;;;;;;5061270;28;20040;-78
2023/12/24 03:27:01;;;;;;;7.40;2.92;;;9.30;99.90;;;;;;5044807;28;20553;-79
2023/12/24 03:29:27;;;;;;;8.65;3.50;;;9.30;99.90;;;;;;5060691;28;20118;-79
2023/12/24 03:31:53;;;;;;;8.20;3.08;;;9.20;99.90;;;;;;5078182;28;20102;-80
2023/12/24 03:34:22;;;;;;;9.70;3.53;;;9.20;99.90;;;;;;5077525;28;20036;-78
2023/12/24 03:36:48;;;;;;;9.23;3.20;;;9.20;99.90;;;;;;5077774;28;20058;-79
2023/12/24 03:39:17;;;;;;;7.57;2.92;;;9.30;99.90;;;;;;5077902;28;20044;-78
2023/12/24 03:41:43;;;;;;;7.45;3.22;;;9.20;99.90;;;;;;5094375;28;20044;-78
2023/12/24 03:44:13;;;;;;;8.77;3.08;;;9.20;99.90;;;;;;5094238;28;20103;-79
2023/12/24 03:46:42;;;;;;;6.70;2.95;;;9.30;99.90;;;;;;5060827;28;20119;-78
2023/12/24 03:49:10;;;;;;;6.75;2.70;;;9.30;99.90;;;;;;5077262;28;20443;-78
2023/12/24 03:51:36;;;;;;;7.13;3.03;;;9.30;99.90;;;;;;5077339;28;20108;-79
2023/12/24 03:54:02;;;;;;;8.57;2.53;;;9.30;99.90;;;;;;5094170;28;20032;-77
2023/12/24 03:56:28;;;;;;;6.57;2.30;;;9.30;99.90;;;;;;5076783;28;20058;-78
2023/12/24 03:58:54;;;;;;;8.15;3.10;;;9.30;99.90;;;;;;5077182;28;20126;-78
2023/12/24 04:01:26;;;;;;;7.45;2.60;;;9.30;99.90;;;;;;5060569;28;20078;-78
2023/12/24 04:03:52;;;;;;;7.63;2.97;;;9.40;99.90;;;;;;5094177;28;20459;-79
2023/12/24 04:06:19;;;;;;;8.77;3.10;;;9.30;99.90;;;;;;5077307;28;20484;-79
2023/12/24 04:08:45;;;;;;;7.43;3.30;;;9.30;99.90;;;;;;5060204;28;20146;-79
2023/12/24 04:11:19;;;;;;;7.82;3.60;;;9.30;99.90;;;;;;5060437;28;20048;-79
2023/12/24 04:13:45;;;;;;;7.10;3.22;;;9.30;99.90;;;;;;5076706;28;20028;-78
2023/12/24 04:16:11;;;;;;;7.70;3.10;;;9.40;99.90;;;;;;5043656;28;20484;-78
2023/12/24 04:18:37;;;;;;;8.77;3.40;;;9.40;99.90;;;;;;5077038;28;20463;-79
2023/12/24 04:21:03;;;;;;;8.38;3.40;;;9.40;99.90;;;;;;5076740;28;20082;-79
2023/12/24 04:23:30;;;;;;;7.07;2.97;;;9.40;99.90;;;;;;5044089;28;20126;-80
2023/12/24 04:25:57;;;;;;;6.10;2.50;;;9.40;99.90;;;;;;5043642;28;20518;-79
2023/12/24 04:28:23;;;;;;;8.88;2.92;;;9.40;99.90;;;;;;5043293;28;20075;-79
2023/12/24 04:30:48;;;;;;;7.50;2.50;;;9.40;99.90;;;;;;5093549;28;20518;-78
2023/12/24 04:33:14;;;;;;;6.13;2.33;;;9.40;99.90;;;;;;5059928;28;20391;-77
2023/12/24 04:35:40;;;;;;;6.30;2.10;;;9.50;99.90;;;;;;5093418;28;20097;-77
2023/12/24 04:38:06;;;;;;;7.10;2.15;;;9.40;99.90;;;;;;5076540;28;20452;-79
2023/12/24 04:40:32;;;;;;;5.88;2.30;;;9.40;99.90;;;;;;5076563;28;20081;-78
2023/12/24 04:42:58;;;;;;;6.43;2.13;;;9.50;99.90;;;;;;5076627;28;20051;-79
2023/12/24 04:45:24;;;;;;;5.18;1.90;;;9.50;99.90;;;;;;5076145;28;20578;-78
2023/12/24 04:47:53;;;;;;;4.82;2.20;;;9.50;99.90;;;;;;5076196;28;20484;-79
2023/12/24 04:50:19;;;;;;;5.95;2.17;;;9.50;99.90;;;;;;5076193;28;20040;-79
2023/12/24 04:52:45;;;;;;;5.90;1.98;;;9.50;99.90;;;;;;5092873;28;20101;-79
2023/12/24 04:55:10;;;;;;;5.20;1.80;;;9.50;99.90;;;;;;5059509;28;20442;-79
2023/12/24 04:57:36;;;;;;;4.63;1.60;;;9.50;99.90;;;;;;5076289;28;20043;-78
2023/12/24 05:00:05;;;;;;;5.15;2.17;;;9.50;99.90;;;;;;5042581;28;20051;-79
2023/12/24 05:02:33;;;;;;;4.60;2.13;;;9.50;99.90;;;;;;5076531;28;20131;-77
2023/12/24 05:05:03;;;;;;;5.95;1.80;;;9.50;99.90;;;;;;5075961;28;20036;-76
2023/12/24 05:07:29;;;;;;;4.20;1.83;;;9.60;99.90;;;;;;5058800;28;20407;-79
2023/12/24 05:09:55;;;;;;;5.90;2.20;;;9.60;99.90;;;;;;5092257;28;20055;-78
2023/12/24 05:12:21;;;;;;;5.47;2.10;;;9.60;99.90;;;;;;5059381;28;20034;-79
2023/12/24 05:14:47;;;;;;;6.35;2.13;;;9.60;99.90;;;;;;5075751;28;20036;-80
2023/12/24 05:17:13;;;;;;;5.13;1.90;;;9.60;99.90;;;;;;5092561;28;20396;-79
2023/12/24 05:19:39;;;;;;;6.43;1.98;;;9.60;99.90;;;;;;5075336;28;20036;-79
2023/12/24 05:22:05;;;;;;;3.42;1.58;;;9.60;99.90;;;;;;5075289;28;20044;-79
2023/12/24 05:24:31;;;;;;;5.30;1.85;;;9.60;99.90;;;;;;5058785;28;20464;-79
2023/12/24 05:26:59;;;;;;;4.82;1.70;;;9.70;99.90;;;;;;5075199;28;20048;-78
2023/12/24 05:29:26;;;;;;;4.30;1.77;;;9.70;99.90;;;;;;5092409;28;20032;-78
2023/12/24 05:31:54;;;;;;;3.78;1.80;;;9.70;99.90;;;;;;5075249;28;20103;-78
2023/12/24 05:34:20;;;;;;;5.50;2.00;;;9.70;99.90;;;;;;5092343;28;20484;-78
2023/12/24 05:36:47;;;;;;;5.45;2.05;;;9.70;99.90;;;;;;5075565;28;20079;-78
2023/12/24 05:39:14;;;;;;;5.30;2.33;;;9.70;99.90;;;;;;5075370;28;20043;-80
2023/12/24 05:41:46;;;;;;;4.95;2.00;;;9.70;99.90;;;;;;5042526;28;20416;-79
2023/12/24 05:44:13;;;;;;;4.78;2.20;;;9.70;99.90;;;;;;5075121;28;20043;-79
2023/12/24 05:46:39;;;;;;;5.30;2.28;;;9.70;99.90;;;;;;5075215;28;20044;-78
2023/12/24 05:49:06;;;;;;;5.90;2.40;;;9.70;99.90;;;;;;5092021;28;20043;-79
2023/12/24 05:51:35;;;;;;;5.82;2.40;;;9.80;99.90;;;;;;5058796;28;20052;-78
2023/12/24 05:54:01;;;;;;;4.85;2.30;;;9.80;99.90;;;;;;5075067;28;20028;-77
2023/12/24 05:56:27;;;;;;;5.30;2.17;;;9.80;99.90;;;;;;5092389;28;20085;-78
2023/12/24 05:58:53;;;;;;;6.65;2.47;;;9.80;99.90;;;;;;5091600;28;20032;-78
2023/12/24 06:01:19;;;;;;;5.53;2.40;;;9.80;99.90;;;;;;5075002;28;20044;-79
2023/12/24 06:03:45;;;;;;;4.88;2.40;;;9.80;99.90;;;;;;5074938;28;20036;-77
2023/12/24 06:06:11;;;;;;;5.28;2.60;;;9.80;99.90;;;;;;5074881;28;20040;-78
2023/12/24 06:08:38;;;;;;;5.22;2.63;;;9.90;99.90;;;;;;5058324;28;20097;-78
2023/12/24 06:11:04;;;;;;;5.82;2.70;;;9.90;99.90;;;;;;5091956;28;20420;-78
2023/12/24 06:13:30;;;;;;;5.10;2.60;;;9.90;99.90;;;;;;5091759;28;20036;-77
2023/12/24 06:15:56;;;;;;;6.40;2.80;;;9.90;99.90;;;;;;5074718;28;20039;-78
2023/12/24 06:18:21;;;;;;;5.43;2.83;;;10.00;99.90;;;;;;5058159;28;20479;-78
2023/12/24 06:20:47;;;;;;;5.97;2.83;;;10.00;99.90;;;;;;5078345;28;20096;-78
2023/12/24 06:23:13;;;;;;;6.68;3.15;;;10.00;99.90;;;;;;5079151;28;20040;-77
2023/12/24 06:25:42;;;;;;;7.65;3.10;;;10.00;99.90;;;;;;5079018;28;20042;-77
2023/12/24 06:28:08;;;;;;;7.18;3.33;;;10.00;99.90;;;;;;5095687;28;20043;-78
2023/12/24 06:30:34;;;;;;;6.97;3.30;;;10.10;99.90;;;;;;5079283;28;20657;-79
2023/12/24 06:33:00;;;;;;;6.75;3.55;;;10.10;99.90;;;;;;5078579;28;20047;-78
2023/12/24 06:35:26;;;;;;;8.07;4.10;;;10.10;99.90;;;;;;5078324;28;20040;-77
2023/12/24 06:37:51;;;;;;;7.20;3.63;;;10.10;99.90;;;;;;5096052;28;20130;-77
2023/12/24 06:40:17;;;;;;;8.32;4.00;;;10.10;99.90;;;;;;5078339;28;20491;-78
2023/12/24 06:42:43;;;;;;;9.73;4.20;;;10.10;99.90;;;;;;5078337;28;20484;-77
2023/12/24 06:45:09;;;;;;;8.60;4.82;;;10.10;99.90;;;;;;5061945;28;20044;-77
2023/12/24 06:47:35;;;;;;;8.77;4.95;;;10.10;99.90;;;;;;5078169;28;20059;-77
2023/12/24 06:50:01;;;;;;;10.63;5.60;;;10.10;99.90;;;;;;5095145;28;20484;-78
2023/12/24 06:52:27;;;;;;;12.45;6.07;;;10.10;99.90;;;;;;5095450;28;20043;-78
2023/12/24 06:54:56;;;;;;;16.10;6.80;;;10.20;99.90;;;;;;5078182;28;20032;-78
2023/12/24 06:57:22;;;;;;;13.32;6.97;;;10.20;99.90;;;;;;5078142;28;20089;-77
2023/12/24 06:59:55;;;;;;;14.60;7.22;;;10.20;99.90;;;;;;5077958;28;20079;-78
2023/12/24 07:02:21;;;;;;;16.85;7.43;;;10.20;99.90;;;;;;5062116;28;20515;-78
2023/12/24 07:04:47;;;;;;;17.30;8.20;;;10.20;99.90;;;;;;5077915;28;20036;-79
2023/12/24 07:07:13;;;;;;;16.10;8.02;;;10.20;99.90;;;;;;5078012;28;20326;-77
2023/12/24 07:09:39;;;;;;;16.90;8.95;;;10.30;99.90;;;;;;5044856;28;20043;-78
2023/12/24 07:12:08;;;;;;;18.45;9.05;;;10.30;99.90;;;;;;5061448;28;20093;-79
2023/12/24 07:14:34;;;;;;;19.73;9.35;;;10.30;99.90;;;;;;5078309;28;20048;-78
2023/12/24 07:17:00;;;;;;;19.10;7.05;;;10.30;99.90;;;;;;5061082;28;20051;-76
2023/12/24 07:19:26;;;;;;;17.00;9.07;;;10.30;99.90;;;;;;5061420;28;20404;-78
2023/12/24 07:21:51;;;;;;;19.60;9.57;;;10.40;99.90;;;;;;5094741;28;20039;-78
2023/12/24 07:24:18;;;;;;;18.85;9.35;;;10.40;99.90;;;;;;5094570;28;20050;-77
2023/12/24 07:26:44;;;;;;;23.48;9.43;;;10.30;99.90;;;;;;5044534;28;20077;-78
2023/12/24 07:29:10;;;;;;;22.73;10.70;;;10.40;99.90;;;;;;5044358;28;20032;-78
2023/12/24 07:31:36;;;;;;;20.88;10.50;;;10.40;99.90;;;;;;5076737;28;20131;-78
2023/12/24 07:34:02;;;;;;;20.60;10.07;;;10.40;99.90;;;;;;5094255;28;20080;-77
2023/12/24 07:36:28;;;;;;;25.02;10.73;;;10.50;99.90;;;;;;5061178;28;20134;-77
2023/12/24 07:38:57;;;;;;;25.10;10.52;;;10.40;99.90;;;;;;5094466;28;20079;-77
2023/12/24 07:41:26;;;;;;;20.52;9.20;;;10.40;99.90;;;;;;5077304;28;20040;-77
2023/12/24 07:43:52;;;;;;;20.42;9.77;;;10.50;99.90;;;;;;5045126;28;20072;-77
2023/12/24 07:46:18;;;;;;;24.25;10.50;;;10.50;99.90;;;;;;5060920;28;20036;-76
2023/12/24 07:48:44;;;;;;;22.20;10.15;;;10.50;99.90;;;;;;5077246;28;20105;-78
2023/12/24 07:51:10;;;;;;;16.67;7.47;;;10.50;99.90;;;;;;5093971;28;20044;-77
2023/12/24 07:53:36;;;;;;;21.05;9.65;;;10.50;99.90;;;;;;5044209;28;20543;-77
2023/12/24 07:56:02;;;;;;;15.98;8.30;;;10.50;99.90;;;;;;5077309;28;20123;-77
2023/12/24 07:58:28;;;;;;;20.15;8.93;;;10.50;99.90;;;;;;5077289;28;20036;-77
2023/12/24 08:00:54;;;;;;;21.23;9.65;;;10.60;99.90;;;;;;5043796;28;20551;-77
2023/12/24 08:03:20;;;;;;;22.13;9.75;;;10.60;99.90;;;;;;5077171;28;20039;-76
2023/12/24 08:05:46;;;;;;;19.90;8.20;;;10.50;99.90;;;;;;5061003;28;20136;-77
2023/12/24 08:08:13;;;;;;;19.70;8.77;;;10.60;99.90;;;;;;5060750;28;20047;-77
2023/12/24 08:10:41;;;;;;;23.73;9.43;;;10.60;99.90;;;;;;5060804;28;20483;-79
2023/12/24 08:13:07;;;;;;;20.05;8.88;;;10.60;99.90;;;;;;5094409;28;20036;-78
2023/12/24 08:15:33;;;;;;;20.98;8.77;;;10.60;99.90;;;;;;5094237;28;20131;-77
2023/12/24 08:17:59;;;;;;;19.15;9.38;;;10.60;99.90;;;;;;5077185;28;20071;-77
2023/12/24 08:20:25;;;;;;;24.17;9.30;;;10.70;99.90;;;;;;5060434;28;20072;-77
2023/12/24 08:22:51;;;;;;;19.98;9.18;;;10.70;99.90;;;;;;5059978;28;20090;-78
2023/12/24 08:25:17;;;;;;;26.83;9.55;;;10.70;99.90;;;;;;5093414;28;20051;-77
2023/12/24 08:27:43;;;;;;;23.83;9.02;;;10.70;99.90;;;;;;5076526;28;20454;-78
2023/12/24 08:30:09;;;;;;;23.55;9.18;;;10.70;99.90;;;;;;5043060;28;20565;-78
2023/12/24 08:32:35;;;;;;;25.85;9.15;;;10.70;99.90;;;;;;5076938;28;20499;-78
2023/12/24 08:35:01;;;;;;;21.08;8.48;;;10.80;99.90;;;;;;5076747;28;20062;-77
2023/12/24 08:37:27;;;;;;;24.45;8.02;;;10.80;99.90;;;;;;5093309;28;20089;-78
2023/12/24 08:39:53;;;;;;;20.95;6.72;;;10.80;99.90;;;;;;5076198;28;20044;-77
2023/12/24 08:42:19;;;;;;;22.73;8.20;;;10.80;99.90;;;;;;5059456;28;20186;-77
2023/12/24 08:44:45;;;;;;;23.52;8.00;;;10.80;99.90;;;;;;5059863;28;20048;-77
2023/12/24 08:47:11;;;;;;;27.10;7.50;;;10.90;99.90;;;;;;5076036;28;20059;-77
2023/12/24 08:49:36;;;;;;;20.23;6.85;;;10.90;99.90;;;;;;5059442;28;20032;-77
2023/12/24 08:52:02;;;;;;;26.73;7.10;;;10.90;99.90;;;;;;5075792;28;20599;-77
2023/12/24 08:54:28;;;;;;;21.98;6.10;;;10.90;99.90;;;;;;5092947;28;20416;-78
2023/12/24 08:56:54;;;;;;;20.60;6.43;;;10.90;99.90;;;;;;5092793;28;20044;-77
2023/12/24 08:59:20;;;;;;;23.13;6.45;;;10.90;99.90;;;;;;5074797;28;20043;-78
2023/12/24 09:01:46;;;;;;;19.50;6.38;;;11.00;99.90;;;;;;5092836;28;20040;-77
2023/12/24 09:04:11;;;;;;;24.77;6.90;;;10.90;99.90;;;;;;5075862;28;20458;-77
2023/12/24 09:06:37;;;;;;;21.23;6.55;;;11.00;99.90;;;;;;5075813;28;20519;-77
2023/12/24 09:09:04;;;;;;;21.85;6.68;;;11.00;99.90;;;;;;5075793;28;20083;-78
2023/12/24 09:11:30;;;;;;;25.20;6.70;;;11.00;99.90;;;;;;5074803;28;20102;-77
2023/12/24 09:13:56;;;;;;;21.65;6.43;;;11.00;99.90;;;;;;5075737;28;20075;-77
2023/12/24 09:16:22;;;;;;;20.70;5.63;;;11.10;99.90;;;;;;5092660;28;20040;-77
2023/12/24 09:18:48;;;;;;;19.13;6.25;;;11.10;99.90;;;;;;5092563;28;20051;-77
2023/12/24 09:21:14;;;;;;;21.90;6.32;;;11.10;99.90;;;;;;5058687;28;20048;-76
2023/12/24 09:23:39;;;;;;;19.73;6.40;;;11.10;99.90;;;;;;5075237;28;20472;-76
2023/12/24 09:26:06;;;;;;;20.90;6.15;;;11.10;99.90;;;;;;5075326;28;20454;-77
2023/12/24 09:28:32;;;;;;;17.10;5.80;;;11.10;99.90;;;;;;5058739;28;20528;-77
2023/12/24 09:30:57;;;;;;;15.23;5.30;;;11.10;99.90;;;;;;5092044;28;20086;-77
2023/12/24 09:33:23;;;;;;;15.13;5.93;;;11.10;99.90;;;;;;5075713;28;20114;-76
2023/12/24 09:35:49;;;;;;;15.70;5.85;;;11.10;99.90;;;;;;5075198;28;20039;-77
2023/12/24 09:38:15;;;;;;;13.80;5.40;;;11.10;99.90;;;;;;5075508;28;20480;-77
2023/12/24 09:40:41;;;;;;;15.98;5.20;;;11.10;99.90;;;;;;5092234;28;20040;-76
2023/12/24 09:43:07;;;;;;;13.70;5.30;;;11.20;99.90;;;;;;5058448;28;20040;-76
2023/12/24 09:45:37;;;;;;;14.77;4.82;;;11.20;99.90;;;;;;5075162;28;20120;-77
2023/12/24 09:48:06;;;;;;;14.75;5.03;;;11.20;99.90;;;;;;5075455;28;20408;-77
2023/12/24 09:50:31;;;;;;;12.30;5.30;;;11.20;99.90;;;;;;5075248;28;20044;-77
2023/12/24 09:52:58;;;;;;;16.33;6.05;;;11.20;99.90;;;;;;5075162;28;20319;-77
2023/12/24 09:55:24;;;;;;;16.67;6.15;;;11.20;99.90;;;;;;5057800;28;20040;-77
2023/12/24 09:57:50;;;;;;;21.05;6.43;;;11.20;99.90;;;;;;5075920;28;20480;-77
2023/12/24 10:00:16;;;;;;;17.27;6.38;;;11.20;99.90;;;;;;5091939;28;20044;-77
2023/12/24 10:02:44;;;;;;;18.15;6.75;;;11.30;99.90;;;;;;5091780;28;20044;-77
2023/12/24 10:05:11;;;;;;;19.80;6.90;;;11.30;99.90;;;;;;5092161;28;20100;-76
2023/12/24 10:07:38;;;;;;;17.80;6.45;;;11.30;99.90;;;;;;5075382;28;20097;-77
2023/12/24 10:10:09;;;;;;;19.70;6.40;;;11.30;99.90;;;;;;5058712;28;20036;-78
2023/12/24 10:12:35;;;;;;;18.38;6.68;;;11.30;99.90;;;;;;5075221;28;20478;-77
2023/12/24 10:15:01;;;;;;;17.27;5.70;;;11.40;99.90;;;;;;5058770;28;20040;-77
2023/12/24 10:17:32;;;;;;;21.17;6.10;;;11.30;99.90;;;;;;5091612;28;20075;-76
2023/12/24 10:19:59;;;;;;;16.33;5.30;;;11.30;99.90;;;;;;5074756;28;20040;-77
2023/12/24 10:22:26;;;;;;;18.38;6.35;;;11.40;99.90;;;;;;5091999;28;20387;-76
2023/12/24 10:25:15;;;;;;;15.75;4.70;;;11.40;99.90;;;;;;5075182;28;20105;-76
2023/12/24 10:27:41;;;;;;;16.77;5.40;;;11.40;99.90;;;;;;5091640;28;20471;-77
2023/12/24 10:30:12;;;;;;;15.35;5.10;;;11.40;99.90;;;;;;5091447;28;20115;-77
2023/12/24 10:32:38;;;;;;;18.40;5.43;;;11.40;99.90;;;;;;5074950;28;20047;-76
2023/12/24 10:35:04;;;;;;;19.20;5.10;;;11.40;99.90;;;;;;5074677;28;20097;-77
2023/12/24 10:37:30;;;;;;;17.52;5.45;;;11.50;99.90;;;;;;5074713;28;20085;-77
2023/12/24 10:40:08;;;;;;;16.20;5.10;;;11.50;99.90;;;;;;5074536;28;20090;-77
2023/12/24 10:42:36;;;;;;;15.65;4.93;;;11.40;99.90;;;;;;5074426;28;20044;-77
2023/12/24 10:45:03;;;;;;;14.93;5.10;;;11.40;99.90;;;;;;5074946;28;20515;-77
2023/12/24 10:47:29;;;;;;;15.52;5.00;;;11.40;99.90;;;;;;5074562;28;20094;-77
2023/12/24 10:49:55;;;;;;;16.42;5.15;;;11.40;99.90;;;;;;5057773;28;20036;-77
2023/12/24 10:52:21;;;;;;;16.77;5.30;;;11.50;99.90;;;;;;5057806;28;20404;-78
2023/12/24 10:54:48;;;;;;;14.88;4.72;;;11.50;99.90;;;;;;5041694;28;20036;-77
2023/12/24 10:57:16;;;;;;;14.65;5.20;;;11.50;99.90;;;;;;5091548;28;20507;-77
2023/12/24 11:00:01;;;;;;;14.73;4.60;;;11.60;99.90;;;;;;5074291;28;20040;-77
2023/12/24 11:02:28;;;;;;;15.98;4.57;;;11.50;99.90;;;;;;5091134;28;20051;-77
2023/12/24 11:04:59;;;;;;;12.43;4.15;;;11.60;99.90;;;;;;5074588;28;20070;-77
2023/12/24 11:07:34;;;;;;;14.73;4.20;;;11.60;99.90;;;;;;5044087;28;20051;-78
2023/12/24 11:10:05;;;;;;;15.20;4.00;;;11.70;99.90;;;;;;5077868;28;20169;-76
2023/12/24 11:12:35;;;;;;;13.60;3.65;;;11.70;99.90;;;;;;5061575;28;20410;-77
2023/12/24 11:15:03;;;;;;;11.45;3.58;;;11.70;99.90;;;;;;5094626;28;20070;-76
2023/12/24 11:17:38;;;;;;;13.35;3.55;;;11.80;99.90;;;;;;5094622;28;20133;-76
2023/12/24 11:20:26;;;;;;;15.80;3.85;;;11.80;99.90;;;;;;5094853;28;20566;-76
2023/12/24 11:23:18;;;;;;;15.65;3.70;;;11.80;99.90;;;;;;5077574;28;20039;-76
2023/12/24 11:25:50;;;;;;;12.95;3.60;;;11.90;99.90;;;;;;5092559;28;20105;-77
2023/12/24 11:28:25;;;;;;;14.00;4.00;;;11.90;99.90;;;;;;5094553;28;20036;-77
2023/12/24 11:30:51;;;;;;;12.68;3.50;;;11.90;99.90;;;;;;5094673;28;20036;-78
2023/12/24 11:33:29;;;;;;;14.63;3.90;;;11.90;99.90;;;;;;5094590;28;20391;-77
2023/12/24 11:35:56;;;;;;;15.57;4.00;;;11.90;99.90;;;;;;5077647;28;20035;-77
2023/12/24 11:38:35;;;;;;;15.93;3.97;;;11.90;99.90;;;;;;5077505;28;20404;-77
2023/12/24 11:41:12;;;;;;;14.90;3.83;;;11.90;99.90;;;;;;5077688;28;20431;-77
2023/12/24 11:43:40;;;;;;;18.23;4.05;;;11.90;99.90;;;;;;5094465;28;20408;-76
2023/12/24 11:46:06;;;;;;;14.77;3.78;;;11.90;99.90;;;;;;5077148;28;20105;-75
2023/12/24 11:48:35;;;;;;;13.20;3.53;;;11.90;99.90;;;;;;5077183;28;20456;-74
2023/12/24 11:51:07;;;;;;;12.32;3.80;;;11.90;99.90;;;;;;5076726;28;20131;-76
2023/12/24 11:53:36;;;;;;;11.02;3.20;;;11.90;99.90;;;;;;5077410;28;20500;-76
2023/12/24 11:56:13;;;;;;;14.40;3.42;;;11.90;99.90;;;;;;5044446;28;20565;-75
2023/12/24 11:58:56;;;;;;;12.05;3.33;;;12.00;99.90;;;;;;5077313;28;20518;-76
2023/12/24 12:01:24;;;;;;;13.75;3.97;;;11.90;99.90;;;;;;5093776;28;20515;-76
2023/12/24 12:04:10;;;;;;;14.02;3.60;;;12.00;99.90;;;;;;5076836;28;20039;-75
2023/12/24 12:06:37;;;;;;;12.98;3.75;;;12.00;99.90;;;;;;5093654;28;20502;-75
2023/12/24 12:09:10;;;;;;;16.98;3.92;;;11.90;99.90;;;;;;5093487;28;20044;-75
2023/12/24 12:11:36;;;;;;;13.45;3.58;;;11.90;99.90;;;;;;5093556;28;20042;-76
2023/12/24 12:14:02;;;;;;;14.93;3.65;;;11.90;99.90;;;;;;5076912;28;20480;-77
2023/12/24 12:16:30;;;;;;;13.35;4.13;;;11.90;99.90;;;;;;5060821;28;20063;-76
2023/12/24 12:18:57;;;;;;;13.95;4.05;;;12.00;99.90;;;;;;5076259;28;20040;-76
2023/12/24 12:21:23;;;;;;;13.05;4.07;;;11.90;99.90;;;;;;5076530;28;20040;-76
2023/12/24 12:23:49;;;;;;;12.82;3.72;;;12.00;99.90;;;;;;5093204;28;20048;-76
2023/12/24 12:26:14;;;;;;;14.52;4.07;;;12.00;99.90;;;;;;5059841;28;20090;-75
2023/12/24 12:28:40;;;;;;;16.75;4.88;;;12.00;99.90;;;;;;5093027;28;20076;-75
2023/12/24 12:31:06;;;;;;;13.80;4.30;;;12.00;99.90;;;;;;5076378;28;20032;-75
2023/12/24 12:33:32;;;;;;;13.63;3.95;;;11.90;99.90;;;;;;5059622;28;20093;-76
2023/12/24 12:35:58;;;;;;;14.98;4.35;;;12.00;99.90;;;;;;5059549;28;20119;-76
2023/12/24 12:38:24;;;;;;;14.10;3.97;;;12.00;99.90;;;;;;5059492;28;20075;-75
2023/12/24 12:40:51;;;;;;;18.27;4.13;;;12.00;99.90;;;;;;5043635;28;20396;-75
2023/12/24 12:43:18;;;;;;;15.32;4.20;;;12.00;99.90;;;;;;5076075;28;20044;-76
2023/12/24 12:45:44;;;;;;;14.38;3.83;;;12.00;99.90;;;;;;5076264;28;20488;-75